Time;durP1;ratioP1;P1;durP2;ratioP2;P2;SDS_P1;SDS_P2;PMS_P1;PMS_P2;Temp;Humidity;BMP_temperature;BMP_pressure;BME280_temperature;BME280_humidity;BME280_pressure;Samples;Min_cycle;Max_cycle;Signal;HPM_P1;HPM_P2
2024/02/02 00:02:01;;;;;;;;;;;;;;;;;;5086557;28;19912;-84
2024/02/02 00:04:27;;;;;;;;;;;;;;;;;;5087303;28;19916;-83
2024/02/02 00:06:53;;;;;;;;;;;;;;;;;;5089249;28;20331;-83
2024/02/02 00:09:19;;;;;;;;;;;;;;;;;;5087958;28;19912;-84
2024/02/02 00:11:45;;;;;;;;;;;;;;;;;;5075945;28;19920;-84
2024/02/02 00:14:11;;;;;;;;;;;;;;;;;;5087615;28;20410;-84
2024/02/02 00:16:37;;;;;;;;;;;;;;;;;;5086837;28;19919;-83
2024/02/02 00:19:03;;;;;;;;;;;;;;;;;;5086737;28;19912;-84
2024/02/02 00:21:28;;;;;;;;;;;;;;;;;;5086530;28;19916;-84
2024/02/02 00:23:54;;;;;;;;;;;;;;;;;;5088327;28;19973;-84
2024/02/02 00:26:20;;;;;;;;;;;;;;;;;;5090772;28;19912;-84
2024/02/02 00:28:46;;;;;;;;;;;;;;;;;;5090616;28;20428;-84
2024/02/02 00:31:12;;;;;;;;;;;;;;;;;;5085888;28;19939;-84
2024/02/02 00:33:38;;;;;;;;;;;;;;;;;;5087592;28;19916;-84
2024/02/02 00:36:04;;;;;;;;;;;;;;;;;;5082551;28;20003;-84
2024/02/02 00:38:30;;;;;;;;;;;;;;;;;;5090113;28;19916;-85
2024/02/02 00:40:56;;;;;;;;;;;;;;;;;;5091076;28;19989;-85
2024/02/02 00:43:21;;;;;;;;;;;;;;;;;;5094017;28;19912;-84
2024/02/02 00:45:47;;;;;;;;;;;;;;;;;;5085416;28;20309;-84
2024/02/02 00:48:13;;;;;;;;;;;;;;;;;;5091423;28;19923;-85
2024/02/02 00:50:39;;;;;;;;;;;;;;;;;;5090758;28;19912;-84
2024/02/02 00:53:05;;;;;;;;;;;;;;;;;;5089392;28;19959;-84
2024/02/02 00:55:31;;;;;;;;;;;;;;;;;;5088769;28;21044;-84
2024/02/02 00:57:56;;;;;;;;;;;;;;;;;;5090861;28;19912;-84
2024/02/02 01:00:22;;;;;;;;;;;;;;;;;;5086165;28;19920;-84
2024/02/02 01:02:48;;;;;;;;;;;;;;;;;;5088395;28;19935;-85
2024/02/02 01:05:14;;;;;;;;;;;;;;;;;;5088801;28;19919;-84
2024/02/02 01:07:40;;;;;;;;;;;;;;;;;;5088953;28;19920;-85
2024/02/02 01:10:06;;;;;;;;;;;;;;;;;;5088917;28;19912;-84
2024/02/02 01:12:32;;;;;;;;;;;;;;;;;;5087701;28;20061;-85
2024/02/02 01:14:57;;;;;;;;;;;;;;;;;;5087054;28;19920;-84
2024/02/02 01:17:23;;;;;;;;;;;;;;;;;;5090369;28;20337;-85
2024/02/02 01:19:49;;;;;;;;;;;;;;;;;;5090651;28;19916;-85
2024/02/02 01:22:15;;;;;;;;;;;;;;;;;;5088058;28;19997;-84
2024/02/02 01:24:41;;;;;;;;;;;;;;;;;;5089367;28;19964;-84
2024/02/02 01:27:08;;;;;;;;;;;;;;;;;;5090802;28;20378;-84
2024/02/02 01:29:34;;;;;;;;;;;;;;;;;;5088037;28;19923;-85
2024/02/02 01:31:59;;;;;;;;;;;;;;;;;;5086833;28;20294;-84
2024/02/02 01:34:25;;;;;;;;;;;;;;;;;;5088331;28;19927;-84
2024/02/02 01:36:51;;;;;;;;;;;;;;;;;;5090601;28;19916;-84
2024/02/02 01:39:17;;;;;;;;;;;;;;;;;;5089149;28;20064;-84
2024/02/02 01:41:43;;;;;;;;;;;;;;;;;;5087585;28;19920;-83
2024/02/02 01:44:09;;;;;;;;;;;;;;;;;;5088838;28;20376;-84
2024/02/02 01:46:35;;;;;;;;;;;;;;;;;;5089334;28;19973;-85
2024/02/02 01:49:01;;;;;;;;;;;;;;;;;;5089800;28;19912;-85
2024/02/02 01:51:27;;;;;;;;;;;;;;;;;;5087567;28;19919;-84
2024/02/02 01:53:53;;;;;;;;;;;;;;;;;;5086074;28;19916;-85
2024/02/02 01:56:18;;;;;;;;;;;;;;;;;;5084983;28;20446;-84
2024/02/02 01:58:44;;;;;;;;;;;;;;;;;;5084137;28;20002;-85
2024/02/02 02:01:10;;;;;;;;;;;;;;;;;;5088726;28;19919;-84
2024/02/02 02:03:36;;;;;;;;;;;;;;;;;;5086638;28;20425;-84
2024/02/02 02:06:02;;;;;;;;;;;;;;;;;;5088398;28;20491;-84
2024/02/02 02:08:29;;;;;;;;;;;;;;;;;;5089563;28;19971;-84
2024/02/02 02:10:54;;;;;;;;;;;;;;;;;;5089682;28;19948;-84
2024/02/02 02:13:20;;;;;;;;;;;;;;;;;;5089413;28;20439;-84
2024/02/02 02:15:46;;;;;;;;;;;;;;;;;;5088556;28;20380;-84
2024/02/02 02:18:12;;;;;;;;;;;;;;;;;;5088223;28;19920;-85
2024/02/02 02:20:39;;;;;;;;;;;;;;;;;;5099884;28;19993;-86
2024/02/02 02:23:05;;;;;;;;;;;;;;;;;;5088876;28;19974;-85
2024/02/02 02:25:31;;;;;;;;;;;;;;;;;;5089291;28;19956;-85
2024/02/02 02:27:57;;;;;;;;;;;;;;;;;;5085469;28;19916;-85
2024/02/02 02:30:23;;;;;;;;;;;;;;;;;;5087542;28;20357;-85
2024/02/02 02:32:49;;;;;;;;;;;;;;;;;;5089257;28;19916;-85
2024/02/02 02:35:15;;;;;;;;;;;;;;;;;;5091485;28;19912;-85
2024/02/02 02:37:43;;;;;;;;;;;;;;;;;;5087666;28;19927;-85
2024/02/02 02:40:09;;;;;;;;;;;;;;;;;;5090297;28;19955;-85
2024/02/02 02:42:35;;;;;;;;;;;;;;;;;;5088621;28;19971;-86
2024/02/02 02:45:01;;;;;;;;;;;;;;;;;;5079236;28;20398;-86
2024/02/02 02:47:27;;;;;;;;;;;;;;;;;;5084915;28;19916;-86
2024/02/02 02:49:53;;;;;;;;;;;;;;;;;;5084340;28;19926;-86
2024/02/02 02:52:19;;;;;;;;;;;;;;;;;;5088273;28;19915;-85
2024/02/02 02:54:45;;;;;;;;;;;;;;;;;;5092618;28;19913;-85
2024/02/02 02:57:10;;;;;;;;;;;;;;;;;;5080802;28;20661;-86
2024/02/02 02:59:36;;;;;;;;;;;;;;;;;;5086565;28;19924;-85
2024/02/02 03:02:03;;;;;;;;;;;;;;;;;;5085077;28;19959;-86
2024/02/02 03:04:29;;;;;;;;;;;;;;;;;;5085619;28;19912;-85
2024/02/02 03:06:54;;;;;;;;;;;;;;;;;;5087307;28;20445;-85
2024/02/02 03:09:20;;;;;;;;;;;;;;;;;;5087666;28;20282;-85
2024/02/02 03:11:46;;;;;;;;;;;;;;;;;;5089171;28;19913;-86
2024/02/02 03:14:12;;;;;;;;;;;;;;;;;;5088463;28;20422;-85
2024/02/02 03:16:38;;;;;;;;;;;;;;;;;;5092008;28;20006;-85
2024/02/02 03:19:04;;;;;;;;;;;;;;;;;;5086249;28;19920;-85
2024/02/02 03:21:30;;;;;;;;;;;;;;;;;;5087994;28;19912;-85
2024/02/02 03:23:56;;;;;;;;;;;;;;;;;;5088473;28;19927;-85
2024/02/02 03:26:22;;;;;;;;;;;;;;;;;;5088015;28;20004;-86
2024/02/02 03:28:48;;;;;;;;;;;;;;;;;;5086448;28;19920;-86
2024/02/02 03:31:14;;;;;;;;;;;;;;;;;;5087958;28;19961;-87
2024/02/02 03:33:39;;;;;;;;;;;;;;;;;;5085845;28;19912;-85
2024/02/02 03:36:05;;;;;;;;;;;;;;;;;;5083792;28;19913;-85
2024/02/02 03:38:31;;;;;;;;;;;;;;;;;;5091425;28;19916;-86
2024/02/02 03:40:57;;;;;;;;;;;;;;;;;;5087092;28;20458;-85
2024/02/02 03:43:23;;;;;;;;;;;;;;;;;;5087127;28;19920;-85
2024/02/02 03:45:49;;;;;;;;;;;;;;;;;;5088600;28;20329;-86
2024/02/02 03:48:15;;;;;;;;;;;;;;;;;;5090427;28;19963;-85
2024/02/02 03:50:41;;;;;;;;;;;;;;;;;;5083796;28;19916;-85
2024/02/02 03:53:07;;;;;;;;;;;;;;;;;;5069516;28;19999;-86
2024/02/02 03:55:32;;;;;;;;;;;;;;;;;;5087614;28;19916;-85
2024/02/02 03:57:58;;;;;;;;;;;;;;;;;;5089229;28;19915;-85
2024/02/02 04:00:24;;;;;;;;;;;;;;;;;;5087496;28;20378;-86
2024/02/02 04:02:52;;;;;;;;;;;;;;;;;;5091748;28;19912;-86
2024/02/02 04:05:18;;;;;;;;;;;;;;;;;;5090515;28;19916;-85
2024/02/02 04:07:44;;;;;;;;;;;;;;;;;;5091575;28;19916;-85
2024/02/02 04:10:10;;;;;;;;;;;;;;;;;;5092397;28;19912;-86
2024/02/02 04:12:38;;;;;;;;;;;;;;;;;;5092126;28;19925;-86
2024/02/02 04:15:04;;;;;;;;;;;;;;;;;;5091581;28;19993;-86
2024/02/02 04:17:30;;;;;;;;;;;;;;;;;;5093305;28;19970;-86
2024/02/02 04:19:56;;;;;;;;;;;;;;;;;;5089246;28;19931;-86
2024/02/02 04:22:22;;;;;;;;;;;;;;;;;;5098669;28;19919;-86
2024/02/02 04:24:48;;;;;;;;;;;;;;;;;;5092700;28;19963;-86
2024/02/02 04:27:13;;;;;;;;;;;;;;;;;;5093185;28;19950;-86
2024/02/02 04:29:39;;;;;;;;;;;;;;;;;;5091397;28;19912;-85
2024/02/02 04:32:05;;;;;;;;;;;;;;;;;;5085053;28;19951;-85
2024/02/02 04:34:31;;;;;;;;;;;;;;;;;;5082211;28;19917;-85
2024/02/02 04:36:57;;;;;;;;;;;;;;;;;;5087579;28;20150;-85
2024/02/02 04:39:23;;;;;;;;;;;;;;;;;;5087961;28;19945;-86
2024/02/02 04:41:49;;;;;;;;;;;;;;;;;;5090607;28;19955;-86
2024/02/02 04:44:15;;;;;;;;;;;;;;;;;;5090144;28;20239;-86
2024/02/02 04:46:41;;;;;;;;;;;;;;;;;;5090884;28;19912;-85
2024/02/02 04:49:07;;;;;;;;;;;;;;;;;;5092185;28;19961;-86
2024/02/02 04:51:32;;;;;;;;;;;;;;;;;;5084610;28;20018;-86
2024/02/02 04:53:58;;;;;;;;;;;;;;;;;;5087155;28;19919;-86
2024/02/02 04:56:24;;;;;;;;;;;;;;;;;;5090589;28;19912;-84
2024/02/02 04:58:51;;;;;;;;;;;;;;;;;;5089640;28;20530;-85
2024/02/02 05:01:17;;;;;;;;;;;;;;;;;;5089370;28;20007;-84
2024/02/02 05:03:43;;;;;;;;;;;;;;;;;;5092316;28;19933;-86
2024/02/02 05:06:09;;;;;;;;;;;;;;;;;;5083510;28;20294;-85
2024/02/02 05:08:35;;;;;;;;;;;;;;;;;;5089269;28;19923;-86
2024/02/02 05:11:01;;;;;;;;;;;;;;;;;;5087862;28;19916;-84
2024/02/02 05:13:27;;;;;;;;;;;;;;;;;;5071370;28;19919;-85
2024/02/02 05:15:53;;;;;;;;;;;;;;;;;;5086148;28;19920;-84
2024/02/02 05:18:19;;;;;;;;;;;;;;;;;;5085757;28;19924;-84
2024/02/02 05:20:47;;;;;;;;;;;;;;;;;;5066102;28;19939;-85
2024/02/02 05:23:12;;;;;;;;;;;;;;;;;;5083556;28;19916;-84
2024/02/02 05:25:38;;;;;;;;;;;;;;;;;;5087872;28;19916;-85
2024/02/02 05:28:04;;;;;;;;;;;;;;;;;;5085474;28;19916;-85
2024/02/02 05:30:30;;;;;;;;;;;;;;;;;;5082964;28;19923;-85
2024/02/02 05:32:56;;;;;;;;;;;;;;;;;;5084944;28;19920;-85
2024/02/02 05:35:22;;;;;;;;;;;;;;;;;;5087766;28;19912;-85
2024/02/02 05:37:48;;;;;;;;;;;;;;;;;;5094754;28;19940;-85
2024/02/02 05:40:13;;;;;;;;;;;;;;;;;;5089640;28;20337;-85
2024/02/02 05:42:40;;;;;;;;;;;;;;;;;;5086568;28;19912;-85
2024/02/02 05:45:05;;;;;;;;;;;;;;;;;;5086680;28;19912;-86
2024/02/02 05:47:31;;;;;;;;;;;;;;;;;;5090401;28;19927;-85
2024/02/02 05:49:57;;;;;;;;;;;;;;;;;;5088432;28;20016;-85
2024/02/02 05:52:23;;;;;;;;;;;;;;;;;;5070353;28;20247;-84
2024/02/02 05:54:49;;;;;;;;;;;;;;;;;;5087994;28;20382;-84
2024/02/02 05:57:15;;;;;;;;;;;;;;;;;;5084937;28;20232;-86
2024/02/02 05:59:40;;;;;;;;;;;;;;;;;;5089178;28;19921;-85
2024/02/02 06:02:06;;;;;;;;;;;;;;;;;;5083514;28;20406;-85
2024/02/02 06:04:32;;;;;;;;;;;;;;;;;;5091100;28;19962;-85
2024/02/02 06:06:58;;;;;;;;;;;;;;;;;;5066805;28;19915;-85
2024/02/02 06:09:24;;;;;;;;;;;;;;;;;;5069307;28;19908;-85
2024/02/02 06:11:50;;;;;;;;;;;;;;;;;;5085446;28;19969;-85
2024/02/02 06:14:16;;;;;;;;;;;;;;;;;;5087780;28;20374;-85
2024/02/02 06:16:41;;;;;;;;;;;;;;;;;;5065649;28;19995;-85
2024/02/02 06:19:07;;;;;;;;;;;;;;;;;;5086277;28;20378;-84
2024/02/02 06:21:33;;;;;;;;;;;;;;;;;;5083379;28;20267;-85
2024/02/02 06:23:59;;;;;;;;;;;;;;;;;;5092553;28;19927;-86
2024/02/02 06:26:25;;;;;;;;;;;;;;;;;;5092365;28;19957;-86
2024/02/02 06:28:51;;;;;;;;;;;;;;;;;;5088803;28;19920;-86
2024/02/02 06:31:16;;;;;;;;;;;;;;;;;;5083550;28;20580;-87
2024/02/02 06:33:45;;;;;;;;;;;;;;;;;;5091260;28;19916;-85
2024/02/02 06:36:11;;;;;;;;;;;;;;;;;;5091212;28;20093;-86
2024/02/02 06:38:37;;;;;;;;;;;;;;;;;;5090336;28;20366;-87
2024/02/02 06:41:03;;;;;;;;;;;;;;;;;;5095784;28;20432;-85
2024/02/02 06:43:29;;;;;;;;;;;;;;;;;;5083614;28;19915;-86
2024/02/02 06:45:55;;;;;;;;;;;;;;;;;;5090586;28;20453;-85
2024/02/02 06:48:21;;;;;;;;;;;;;;;;;;5092350;28;19964;-87
2024/02/02 06:50:47;;;;;;;;;;;;;;;;;;5091277;28;20358;-84
2024/02/02 06:53:13;;;;;;;;;;;;;;;;;;5086350;28;19999;-84
2024/02/02 06:55:39;;;;;;;;;;;;;;;;;;5085905;28;19939;-84
2024/02/02 06:58:05;;;;;;;;;;;;;;;;;;5089400;28;20374;-86
2024/02/02 07:00:30;;;;;;;;;;;;;;;;;;5086743;28;20703;-85
2024/02/02 07:02:56;;;;;;;;;;;;;;;;;;5067154;28;20049;-86
2024/02/02 07:05:22;;;;;;;;;;;;;;;;;;5085634;28;19916;-85
2024/02/02 07:07:48;;;;;;;;;;;;;;;;;;5087297;28;20377;-84
2024/02/02 07:10:18;;;;;;;;;;;;;;;;;;5086728;28;19920;-81
2024/02/02 07:12:43;;;;;;;;;;;;;;;;;;5088869;28;19919;-85
2024/02/02 07:15:09;;;;;;;;;;;;;;;;;;5088561;28;19913;-86
2024/02/02 07:17:36;;;;;;;;;;;;;;;;;;5088809;28;19916;-86
2024/02/02 07:20:04;;;;;;;;;;;;;;;;;;5089262;28;20002;-83
2024/02/02 07:22:30;;;;;;;;;;;;;;;;;;5088658;28;19938;-86
2024/02/02 07:24:55;;;;;;;;;;;;;;;;;;5086726;28;19924;-85
2024/02/02 07:27:21;;;;;;;;;;;;;;;;;;5086898;28;20414;-87
2024/02/02 07:29:47;;;;;;;;;;;;;;;;;;5091461;28;19916;-86
2024/02/02 07:32:13;;;;;;;;;;;;;;;;;;5086440;28;19922;-86
2024/02/02 07:34:39;;;;;;;;;;;;;;;;;;5085928;28;19912;-85
2024/02/02 07:37:05;;;;;;;;;;;;;;;;;;5090301;28;19916;-85
2024/02/02 07:39:40;;;;;;;;;;;;;;;;;;5074736;28;19916;-85
2024/02/02 07:42:05;;;;;;;;;;;;;;;;;;5090538;28;19908;-86
2024/02/02 07:44:31;;;;;;;;;;;;;;;;;;5077461;28;19915;-89
2024/02/02 07:46:57;;;;;;;;;;;;;;;;;;5089532;28;19965;-86
2024/02/02 07:49:23;;;;;;;;;;;;;;;;;;5083686;28;19908;-86
2024/02/02 07:51:49;;;;;;;;;;;;;;;;;;5073463;28;19912;-85
2024/02/02 07:54:15;;;;;;;;;;;;;;;;;;5090156;28;19943;-86
2024/02/02 07:56:41;;;;;;;;;;;;;;;;;;5075319;28;19970;-85
2024/02/02 07:59:07;;;;;;;;;;;;;;;;;;5091524;28;19948;-85
2024/02/02 08:01:33;;;;;;;;;;;;;;;;;;5096487;28;19912;-84
2024/02/02 08:03:59;;;;;;;;;;;;;;;;;;5087717;28;20639;-83
2024/02/02 08:06:25;;;;;;;;;;;;;;;;;;5093328;28;19920;-83
2024/02/02 08:08:51;;;;;;;;;;;;;;;;;;5094713;28;19919;-83
2024/02/02 08:11:17;;;;;;;;;;;;;;;;;;5092927;28;20429;-82
2024/02/02 08:13:43;;;;;;;;;;;;;;;;;;5092024;28;19908;-83
2024/02/02 08:16:09;;;;;;;;;;;;;;;;;;5092070;28;19915;-82
2024/02/02 08:18:36;;;;;;;;;;;;;;;;;;5098530;28;19912;-83
2024/02/02 08:21:02;;;;;;;;;;;;;;;;;;5093022;28;20410;-84
2024/02/02 08:23:28;;;;;;;;;;;;;;;;;;5094442;28;20015;-83
2024/02/02 08:25:54;;;;;;;;;;;;;;;;;;5078939;28;19956;-85
2024/02/02 08:28:20;;;;;;;;;;;;;;;;;;5093532;28;19927;-85
2024/02/02 08:30:46;;;;;;;;;;;;;;;;;;5093746;28;20009;-85
2024/02/02 08:33:13;;;;;;;;;;;;;;;;;;5090067;28;19924;-84
2024/02/02 08:35:39;;;;;;;;;;;;;;;;;;5090193;28;20168;-87
2024/02/02 08:38:05;;;;;;;;;;;;;;;;;;5092549;28;19923;-85
2024/02/02 08:40:30;;;;;;;;;;;;;;;;;;5091868;28;20356;-84
2024/02/02 08:42:56;;;;;;;;;;;;;;;;;;5090466;28;20370;-85
2024/02/02 08:45:22;;;;;;;;;;;;;;;;;;5088568;28;20815;-84
2024/02/02 08:47:48;;;;;;;;;;;;;;;;;;5088616;28;20015;-85
2024/02/02 08:50:14;;;;;;;;;;;;;;;;;;5085961;28;20338;-84
2024/02/02 08:52:43;;;;;;;;;;;;;;;;;;5068051;28;20003;-83
2024/02/02 08:55:09;;;;;;;;;;;;;;;;;;5085575;28;19912;-85
2024/02/02 08:57:35;;;;;;;;;;;;;;;;;;5092637;28;20384;-86
2024/02/02 09:00:04;;;;;;;;;;;;;;;;;;5096307;28;19912;-85
2024/02/02 09:02:30;;;;;;;;;;;;;;;;;;5094424;28;19912;-85
2024/02/02 09:04:57;;;;;;;;;;;;;;;;;;5096635;28;20282;-86
2024/02/02 09:07:23;;;;;;;;;;;;;;;;;;5099819;28;19927;-86
2024/02/02 09:09:48;;;;;;;;;;;;;;;;;;5086847;28;19912;-87
2024/02/02 09:12:14;;;;;;;;;;;;;;;;;;5104643;28;19918;-87
2024/02/02 09:14:40;;;;;;;;;;;;;;;;;;5104469;28;19917;-87
2024/02/02 09:17:06;;;;;;;;;;;;;;;;;;5104534;28;19923;-87
2024/02/02 09:19:32;;;;;;;;;;;;;;;;;;5106138;28;20133;-87
2024/02/02 09:21:58;;;;;;;;;;;;;;;;;;5109732;28;19916;-87
2024/02/02 09:24:24;;;;;;;;;;;;;;;;;;5106106;28;19931;-88
2024/02/02 09:26:50;;;;;;;;;;;;;;;;;;5105166;28;19912;-86
2024/02/02 09:29:18;;;;;;;;;;;;;;;;;;5104808;28;19937;-88
2024/02/02 09:31:44;;;;;;;;;;;;;;;;;;5103859;28;19935;-86
2024/02/02 09:34:10;;;;;;;;;;;;;;;;;;5115538;28;20397;-87
2024/02/02 09:36:37;;;;;;;;;;;;;;;;;;5101120;28;19940;-88
2024/02/02 09:39:03;;;;;;;;;;;;;;;;;;5106711;28;19916;-87
2024/02/02 09:41:29;;;;;;;;;;;;;;;;;;5106828;28;19919;-86
2024/02/02 09:43:55;;;;;;;;;;;;;;;;;;5105695;28;19908;-87
2024/02/02 09:46:21;;;;;;;;;;;;;;;;;;5105443;28;20362;-87
2024/02/02 09:48:47;;;;;;;;;;;;;;;;;;5108462;28;19959;-87
2024/02/02 09:51:13;;;;;;;;;;;;;;;;;;5105132;28;20469;-87
2024/02/02 09:53:38;;;;;;;;;;;;;;;;;;5123172;28;19919;-86
2024/02/02 09:56:05;;;;;;;;;;;;;;;;;;5097854;28;20267;-87
2024/02/02 09:58:32;;;;;;;;;;;;;;;;;;5099239;28;19919;-88
2024/02/02 10:00:58;;;;;;;;;;;;;;;;;;5100801;28;19916;-87
2024/02/02 10:03:24;;;;;;;;;;;;;;;;;;5101390;28;19908;-87
2024/02/02 10:05:51;;;;;;;;;;;;;;;;;;5099896;28;19923;-87
2024/02/02 10:08:17;;;;;;;;;;;;;;;;;;5099071;28;19916;-86
2024/02/02 10:10:42;;;;;;;;;;;;;;;;;;5100331;28;19916;-87
2024/02/02 10:13:09;;;;;;;;;;;;;;;;;;5104600;28;19922;-88
2024/02/02 10:15:35;;;;;;;;;;;;;;;;;;5105802;28;20113;-87
2024/02/02 10:18:01;;;;;;;;;;;;;;;;;;5098322;28;19958;-87
2024/02/02 10:20:26;;;;;;;;;;;;;;;;;;5098071;28;20643;-88
2024/02/02 10:22:52;;;;;;;;;;;;;;;;;;5100540;28;19916;-87
2024/02/02 10:25:18;;;;;;;;;;;;;;;;;;5103487;28;19927;-87
2024/02/02 10:27:44;;;;;;;;;;;;;;;;;;5110460;28;20381;-88
2024/02/02 10:30:10;;;;;;;;;;;;;;;;;;5098992;28;19934;-86
2024/02/02 10:32:36;;;;;;;;;;;;;;;;;;5097001;28;20359;-87
2024/02/02 10:35:02;;;;;;;;;;;;;;;;;;5099318;28;19912;-87
2024/02/02 10:37:28;;;;;;;;;;;;;;;;;;5096854;28;20393;-87
2024/02/02 10:39:54;;;;;;;;;;;;;;;;;;5094850;28;20446;-88
2024/02/02 10:42:20;;;;;;;;;;;;;;;;;;5094983;28;19923;-87
2024/02/02 10:44:46;;;;;;;;;;;;;;;;;;5104245;28;19911;-88
2024/02/02 10:47:11;;;;;;;;;;;;;;;;;;5096496;28;19912;-87
2024/02/02 10:49:37;;;;;;;;;;;;;;;;;;5099128;28;19908;-88
2024/02/02 10:52:04;;;;;;;;;;;;;;;;;;5098567;28;20286;-87
2024/02/02 10:54:30;;;;;;;;;;;;;;;;;;5098282;28;20375;-87
2024/02/02 10:56:56;;;;;;;;;;;;;;;;;;5095769;28;19908;-88
2024/02/02 10:59:22;;;;;;;;;;;;;;;;;;5096527;28;20355;-86
2024/02/02 11:01:50;;;;;;;;;;;;;;;;;;5077193;28;20023;-87
2024/02/02 11:04:16;;;;;;;;;;;;;;;;;;5094725;28;20012;-89
2024/02/02 11:06:42;;;;;;;;;;;;;;;;;;5107692;28;19943;-88
2024/02/02 11:09:08;;;;;;;;;;;;;;;;;;5095880;28;19965;-88
2024/02/02 11:11:34;;;;;;;;;;;;;;;;;;5096789;28;20432;-87
2024/02/02 11:14:00;;;;;;;;;;;;;;;;;;5094704;28;19912;-88
2024/02/02 11:16:26;;;;;;;;;;;;;;;;;;5077215;28;19999;-87
2024/02/02 11:18:51;;;;;;;;;;;;;;;;;;5095080;28;19943;-87
2024/02/02 11:21:17;;;;;;;;;;;;;;;;;;5093930;28;20312;-86
2024/02/02 11:23:43;;;;;;;;;;;;;;;;;;5092832;28;19931;-87
2024/02/02 11:26:09;;;;;;;;;;;;;;;;;;5084645;28;19964;-87
2024/02/02 11:28:35;;;;;;;;;;;;;;;;;;5098380;28;19916;-88
2024/02/02 11:31:01;;;;;;;;;;;;;;;;;;5094410;28;20378;-87
2024/02/02 11:33:27;;;;;;;;;;;;;;;;;;5092542;28;19912;-87
2024/02/02 11:35:52;;;;;;;;;;;;;;;;;;5094585;28;19912;-86
2024/02/02 11:38:18;;;;;;;;;;;;;;;;;;5091257;28;19933;-88
2024/02/02 11:40:44;;;;;;;;;;;;;;;;;;5091937;28;19958;-87
2024/02/02 11:43:10;;;;;;;;;;;;;;;;;;5095321;28;20228;-88
2024/02/02 11:45:36;;;;;;;;;;;;;;;;;;5094895;28;20003;-87
2024/02/02 11:48:03;;;;;;;;;;;;;;;;;;5092070;28;19916;-87
2024/02/02 11:50:29;;;;;;;;;;;;;;;;;;5093976;28;19912;-86
2024/02/02 11:52:55;;;;;;;;;;;;;;;;;;5092272;28;20206;-87
2024/02/02 11:55:21;;;;;;;;;;;;;;;;;;5094967;28;19915;-88
2024/02/02 11:57:49;;;;;;;;;;;;;;;;;;5093335;28;19908;-87
2024/02/02 12:00:16;;;;;;;;;;;;;;;;;;5073583;28;19914;-87
2024/02/02 12:02:42;;;;;;;;;;;;;;;;;;5095768;28;19988;-87
2024/02/02 12:05:08;;;;;;;;;;;;;;;;;;5089734;28;19912;-87
2024/02/02 12:07:34;;;;;;;;;;;;;;;;;;5098158;28;19915;-87
2024/02/02 12:10:00;;;;;;;;;;;;;;;;;;5090863;28;20022;-87
2024/02/02 12:12:26;;;;;;;;;;;;;;;;;;5091842;28;20440;-88
2024/02/02 12:14:52;;;;;;;;;;;;;;;;;;5092242;28;20014;-87
2024/02/02 12:17:18;;;;;;;;;;;;;;;;;;5091495;28;19937;-86
2024/02/02 12:19:43;;;;;;;;;;;;;;;;;;5091451;28;20003;-88
2024/02/02 12:22:09;;;;;;;;;;;;;;;;;;5093563;28;19912;-87
2024/02/02 12:24:35;;;;;;;;;;;;;;;;;;5094957;28;20066;-86
2024/02/02 12:27:01;;;;;;;;;;;;;;;;;;5101180;28;19923;-86
2024/02/02 12:29:27;;;;;;;;;;;;;;;;;;5106591;28;20445;-87
2024/02/02 12:31:53;;;;;;;;;;;;;;;;;;5100357;28;20003;-86
2024/02/02 12:34:19;;;;;;;;;;;;;;;;;;5094950;28;19908;-87
2024/02/02 12:36:45;;;;;;;;;;;;;;;;;;5095339;28;20362;-88
2024/02/02 12:39:10;;;;;;;;;;;;;;;;;;5096758;28;19920;-87
2024/02/02 12:41:36;;;;;;;;;;;;;;;;;;5086324;28;20012;-87
2024/02/02 12:44:04;;;;;;;;;;;;;;;;;;5098744;28;20413;-87
2024/02/02 12:46:30;;;;;;;;;;;;;;;;;;5098488;28;20409;-87
2024/02/02 12:48:56;;;;;;;;;;;;;;;;;;5094150;28;19919;-87
2024/02/02 12:51:22;;;;;;;;;;;;;;;;;;5094975;28;20508;-88
2024/02/02 12:53:48;;;;;;;;;;;;;;;;;;5095174;28;20003;-88
2024/02/02 12:56:14;;;;;;;;;;;;;;;;;;5094501;28;19922;-85
2024/02/02 12:58:40;;;;;;;;;;;;;;;;;;5095686;28;19908;-87
2024/02/02 13:01:06;;;;;;;;;;;;;;;;;;5095927;28;19966;-86
2024/02/02 13:03:32;;;;;;;;;;;;;;;;;;5104145;28;19947;-86
2024/02/02 13:05:58;;;;;;;;;;;;;;;;;;5099220;28;20117;-86
2024/02/02 13:08:23;;;;;;;;;;;;;;;;;;5100206;28;19923;-87
2024/02/02 13:10:50;;;;;;;;;;;;;;;;;;5095580;28;19908;-87
2024/02/02 13:13:15;;;;;;;;;;;;;;;;;;5094941;28;19946;-86
2024/02/02 13:15:41;;;;;;;;;;;;;;;;;;5093041;28;20293;-86
2024/02/02 13:18:07;;;;;;;;;;;;;;;;;;5092647;28;20175;-86
2024/02/02 13:20:33;;;;;;;;;;;;;;;;;;5093313;28;19923;-86
2024/02/02 13:23:05;;;;;;;;;;;;;;;;;;5092835;28;20324;-87
2024/02/02 13:25:31;;;;;;;;;;;;;;;;;;5093260;28;19931;-87
2024/02/02 13:27:57;;;;;;;;;;;;;;;;;;5094149;28;20290;-86
2024/02/02 13:30:26;;;;;;;;;;;;;;;;;;5093262;28;20006;-86
2024/02/02 13:32:52;;;;;;;;;;;;;;;;;;5099224;28;19912;-84
2024/02/02 13:35:22;;;;;;;;;;;;;;;;;;5095742;28;19919;-85
2024/02/02 13:37:51;;;;;;;;;;;;;;;;;;5098180;28;19916;-86
2024/02/02 13:40:17;;;;;;;;;;;;;;;;;;5095364;28;19916;-86
2024/02/02 13:42:45;;;;;;;;;;;;;;;;;;5070886;28;19916;-86
2024/02/02 13:45:11;;;;;;;;;;;;;;;;;;5088575;28;19915;-84
2024/02/02 13:47:37;;;;;;;;;;;;;;;;;;5091635;28;19923;-84
2024/02/02 13:50:06;;;;;;;;;;;;;;;;;;5091174;28;19916;-85
2024/02/02 13:52:31;;;;;;;;;;;;;;;;;;5091937;28;19961;-82
2024/02/02 13:54:57;;;;;;;;;;;;;;;;;;5090454;28;19916;-87
2024/02/02 13:57:23;;;;;;;;;;;;;;;;;;5081335;28;19916;-84
2024/02/02 13:59:50;;;;;;;;;;;;;;;;;;5083368;28;20010;-82
2024/02/02 14:02:16;;;;;;;;;;;;;;;;;;5087789;28;19928;-83
2024/02/02 14:04:42;;;;;;;;;;;;;;;;;;5083218;28;19929;-82
2024/02/02 14:07:08;;;;;;;;;;;;;;;;;;5084153;28;19920;-82
2024/02/02 14:09:34;;;;;;;;;;;;;;;;;;5086192;28;20315;-84
2024/02/02 14:12:03;;;;;;;;;;;;;;;;;;5080270;28;19916;-83
2024/02/02 14:14:28;;;;;;;;;;;;;;;;;;5079309;28;19938;-84
2024/02/02 14:16:54;;;;;;;;;;;;;;;;;;5084426;28;19916;-85
2024/02/02 14:19:20;;;;;;;;;;;;;;;;;;5086233;28;19912;-87
2024/02/02 14:21:46;;;;;;;;;;;;;;;;;;5065213;28;19917;-88
2024/02/02 14:24:12;;;;;;;;;;;;;;;;;;5079787;28;19924;-89
2024/02/02 14:26:38;;;;;;;;;;;;;;;;;;5083320;28;19920;-89
2024/02/02 14:29:04;;;;;;;;;;;;;;;;;;5089831;28;19967;-82
2024/02/02 14:31:31;;;;;;;;;;;;;;;;;;5085154;28;20547;-81
2024/02/02 14:33:57;;;;;;;;;;;;;;;;;;5087524;28;19918;-81
2024/02/02 14:36:23;;;;;;;;;;;;;;;;;;5086552;28;19920;-80
2024/02/02 14:38:49;;;;;;;;;;;;;;;;;;5088474;28;20356;-80
2024/02/02 14:41:15;;;;;;;;;;;;;;;;;;5087515;28;19915;-81
2024/02/02 14:43:41;;;;;;;;;;;;;;;;;;5088827;28;19908;-80
2024/02/02 14:46:07;;;;;;;;;;;;;;;;;;5085096;28;19912;-80
2024/02/02 14:48:33;;;;;;;;;;;;;;;;;;5088502;28;20144;-81
2024/02/02 14:50:59;;;;;;;;;;;;;;;;;;5086226;28;19913;-81
2024/02/02 14:53:24;;;;;;;;;;;;;;;;;;5097141;28;19963;-81
2024/02/02 14:55:50;;;;;;;;;;;;;;;;;;5080398;28;19916;-80
2024/02/02 14:58:16;;;;;;;;;;;;;;;;;;5088303;28;19912;-80
2024/02/02 15:00:44;;;;;;;;;;;;;;;;;;5084545;28;19974;-81
2024/02/02 15:03:10;;;;;;;;;;;;;;;;;;5083490;28;19927;-80
2024/02/02 15:05:36;;;;;;;;;;;;;;;;;;5088653;28;19915;-80
2024/02/02 15:08:02;;;;;;;;;;;;;;;;;;5086059;28;20019;-80
2024/02/02 15:10:29;;;;;;;;;;;;;;;;;;5087969;28;20305;-81
2024/02/02 15:12:55;;;;;;;;;;;;;;;;;;5090078;28;20042;-80
2024/02/02 15:15:21;;;;;;;;;;;;;;;;;;5093274;28;19911;-83
2024/02/02 15:17:47;;;;;;;;;;;;;;;;;;5089537;28;19920;-78
2024/02/02 15:20:13;;;;;;;;;;;;;;;;;;5082919;28;20679;-79
2024/02/02 15:22:39;;;;;;;;;;;;;;;;;;5086493;28;20540;-85
2024/02/02 15:25:05;;;;;;;;;;;;;;;;;;5090642;28;20036;-83
2024/02/02 15:27:31;;;;;;;;;;;;;;;;;;5090189;28;20396;-82
2024/02/02 15:29:57;;;;;;;;;;;;;;;;;;5086819;28;19920;-81
2024/02/02 15:32:24;;;;;;;;;;;;;;;;;;5090243;28;19912;-81
2024/02/02 15:34:50;;;;;;;;;;;;;;;;;;5089194;28;20179;-81
2024/02/02 15:37:17;;;;;;;;;;;;;;;;;;5082678;28;21208;-81
2024/02/02 15:39:43;;;;;;;;;;;;;;;;;;5092781;28;19916;-80
2024/02/02 15:42:09;;;;;;;;;;;;;;;;;;5068690;28;20112;-80
2024/02/02 15:44:35;;;;;;;;;;;;;;;;;;5084822;28;19912;-80
2024/02/02 15:47:03;;;;;;;;;;;;;;;;;;5085950;28;19912;-81
2024/02/02 15:49:29;;;;;;;;;;;;;;;;;;5087497;28;19942;-81
2024/02/02 15:51:55;;;;;;;;;;;;;;;;;;5084942;28;19912;-81
2024/02/02 15:54:21;;;;;;;;;;;;;;;;;;5086153;28;20010;-81
2024/02/02 15:56:47;;;;;;;;;;;;;;;;;;5093366;28;20274;-81
2024/02/02 15:59:13;;;;;;;;;;;;;;;;;;5091836;28;19916;-80
2024/02/02 16:01:39;;;;;;;;;;;;;;;;;;5090577;28;20293;-81
2024/02/02 16:04:05;;;;;;;;;;;;;;;;;;5089501;28;20327;-81
2024/02/02 16:06:31;;;;;;;;;;;;;;;;;;5091277;28;19915;-80
2024/02/02 16:08:57;;;;;;;;;;;;;;;;;;5093063;28;19923;-81
2024/02/02 16:11:22;;;;;;;;;;;;;;;;;;5091911;28;19920;-81
2024/02/02 16:13:49;;;;;;;;;;;;;;;;;;5102481;28;19918;-80
2024/02/02 16:16:15;;;;;;;;;;;;;;;;;;5091669;28;19916;-80
2024/02/02 16:18:41;;;;;;;;;;;;;;;;;;5090282;28;19935;-79
2024/02/02 16:21:07;;;;;;;;;;;;;;;;;;5091604;28;19951;-80
2024/02/02 16:23:33;;;;;;;;;;;;;;;;;;5095254;28;20399;-80
2024/02/02 16:25:59;;;;;;;;;;;;;;;;;;5092478;28;20316;-80
2024/02/02 16:28:25;;;;;;;;;;;;;;;;;;5097334;28;19915;-81
2024/02/02 16:30:50;;;;;;;;;;;;;;;;;;5095034;28;20358;-81
2024/02/02 16:33:19;;;;;;;;;;;;;;;;;;5094093;28;20271;-80
2024/02/02 16:35:45;;;;;;;;;;;;;;;;;;5092333;28;20369;-81
2024/02/02 16:38:12;;;;;;;;;;;;;;;;;;5089835;28;19923;-80